createdAt,value
2023-02-19T00:00:01.777Z,100024.13
2023-02-19T00:02:30.258Z,100025.89
2023-02-19T00:04:58.432Z,100044.42
2023-02-19T00:07:26.703Z,100042.86
2023-02-19T00:09:55.083Z,100056.34
2023-02-19T00:12:23.374Z,100076.91
2023-02-19T00:14:51.734Z,100073.48
2023-02-19T00:17:20.114Z,100077.43
2023-02-19T00:19:50.848Z,100084.54
2023-02-19T00:22:19.063Z,100087.45
2023-02-19T00:24:49.296Z,100085.16
2023-02-19T00:27:17.519Z,100089.84
2023-02-19T00:29:45.895Z,100094.77
2023-02-19T00:32:14.281Z,100094.88
2023-02-19T00:34:42.450Z,100097.54
2023-02-19T00:37:10.829Z,100082.09
2023-02-19T00:39:39.014Z,100076.22
2023-02-19T00:42:07.175Z,100073.05
2023-02-19T00:44:35.452Z,100067.97
2023-02-19T00:47:03.641Z,100062.73
2023-02-19T00:49:32.519Z,100055.46
2023-02-19T00:52:01.204Z,100054.09
2023-02-19T00:54:31.746Z,100056.00
2023-02-19T00:57:00.295Z,100055.81
2023-02-19T00:59:28.488Z,100051.02
2023-02-19T01:01:56.793Z,100044.91
2023-02-19T01:04:24.924Z,100031.60
2023-02-19T01:06:53.211Z,100031.39
2023-02-19T01:09:21.605Z,100033.03
2023-02-19T01:11:49.862Z,100037.06
2023-02-19T01:14:18.957Z,100039.67
2023-02-19T01:16:47.232Z,100039.44
2023-02-19T01:19:15.524Z,100042.03
2023-02-19T01:21:44.306Z,100051.82
2023-02-19T01:24:12.611Z,100049.07
2023-02-19T01:26:40.955Z,100044.48
2023-02-19T01:29:10.050Z,100049.94
2023-02-19T01:31:41.208Z,100061.29
2023-02-19T01:34:11.879Z,100057.77
2023-02-19T01:36:40.000Z,100057.09
2023-02-19T01:39:11.254Z,100060.56
2023-02-19T01:41:41.679Z,100067.38
2023-02-19T01:44:15.986Z,100074.99
2023-02-19T01:46:46.572Z,100073.95
2023-02-19T01:49:27.904Z,100071.65
2023-02-19T01:52:01.776Z,100076.19
2023-02-19T01:54:35.298Z,100082.00
2023-02-19T01:57:10.703Z,100085.39
2023-02-19T01:59:40.032Z,100087.48
2023-02-19T02:02:09.334Z,100089.89
2023-02-19T02:04:38.033Z,100094.52
2023-02-19T02:07:29.563Z,100089.14
2023-02-19T02:10:17.490Z,100092.51
2023-02-19T02:12:46.080Z,100089.66
2023-02-19T02:15:16.671Z,100092.48
2023-02-19T02:17:59.037Z,100095.70
2023-02-19T02:20:56.473Z,100092.89
2023-02-19T02:23:55.883Z,100101.86
2023-02-19T02:26:39.411Z,100112.35
2023-02-19T02:29:44.142Z,100130.87
2023-02-19T02:32:20.046Z,100149.36
2023-02-19T02:34:57.957Z,100159.16
2023-02-19T02:37:30.886Z,100175.62
2023-02-19T02:40:00.694Z,100192.73
2023-02-19T02:42:30.404Z,100223.86
2023-02-19T02:45:35.007Z,100232.71
2023-02-19T02:48:12.317Z,100239.17
2023-02-19T02:50:55.242Z,100246.66
2023-02-19T02:54:08.263Z,100250.00
2023-02-19T02:56:37.748Z,100245.85
2023-02-19T02:59:09.081Z,100248.62
2023-02-19T03:02:00.689Z,100247.31
2023-02-19T03:05:06.802Z,100247.17
2023-02-19T03:07:39.580Z,100249.05
2023-02-19T03:10:12.567Z,100254.71
2023-02-19T03:13:00.306Z,100257.33
2023-02-19T03:15:53.150Z,100264.67
2023-02-19T03:18:42.420Z,100268.83
2023-02-19T03:21:11.990Z,100272.92
2023-02-19T03:24:01.092Z,100270.92
2023-02-19T03:26:31.931Z,100270.23
2023-02-19T03:29:22.121Z,100265.81
2023-02-19T03:31:55.374Z,100273.38
2023-02-19T03:34:34.686Z,100285.11
2023-02-19T03:37:15.814Z,100286.97
2023-02-19T03:39:47.474Z,100285.58
2023-02-19T03:42:20.977Z,100289.46
2023-02-19T03:45:25.927Z,100287.60
2023-02-19T03:48:29.923Z,100295.52
2023-02-19T03:51:33.120Z,100304.48
2023-02-19T03:54:18.703Z,100300.23
2023-02-19T03:57:15.235Z,100289.73
2023-02-19T04:00:03.683Z,100278.02
2023-02-19T04:02:59.712Z,100277.27
2023-02-19T04:05:32.284Z,100285.83
2023-02-19T04:08:08.987Z,100293.23
2023-02-19T04:10:41.130Z,100302.67
2023-02-19T04:13:20.885Z,100304.58
2023-02-19T04:15:53.866Z,100317.85
2023-02-19T04:18:28.797Z,100321.46
2023-02-19T04:20:59.278Z,100321.91
2023-02-19T04:23:30.739Z,100330.79
2023-02-19T04:26:01.502Z,100336.86
2023-02-19T04:28:29.983Z,100334.88
2023-02-19T04:30:58.278Z,100336.49
2023-02-19T04:33:26.430Z,100341.65
2023-02-19T04:35:54.808Z,100351.04
2023-02-19T04:38:23.088Z,100352.41
2023-02-19T04:40:51.670Z,100360.96
2023-02-19T04:43:20.353Z,100361.52
2023-02-19T04:45:48.431Z,100358.25
2023-02-19T04:48:16.703Z,100360.13
2023-02-19T04:50:44.974Z,100368.61
2023-02-19T04:53:13.170Z,100375.09
2023-02-19T04:55:41.426Z,100375.02
2023-02-19T04:58:09.555Z,100369.73
2023-02-19T05:00:37.762Z,100371.63
2023-02-19T05:03:06.052Z,100368.25
2023-02-19T05:05:35.361Z,100365.00
2023-02-19T05:08:04.748Z,100368.61
2023-02-19T05:10:33.845Z,100380.70
2023-02-19T05:13:02.134Z,100389.88
2023-02-19T05:15:30.523Z,100398.65
2023-02-19T05:17:58.812Z,100403.30
2023-02-19T05:20:26.947Z,100410.20
2023-02-19T05:22:55.242Z,100424.05
2023-02-19T05:25:23.397Z,100435.42
2023-02-19T05:28:11.538Z,100449.95
2023-02-19T05:30:39.614Z,100445.78
2023-02-19T05:33:07.783Z,100452.98
2023-02-19T05:35:44.794Z,100467.29
2023-02-19T05:38:13.660Z,100474.61
2023-02-19T05:40:42.852Z,100479.45
2023-02-19T05:43:14.208Z,100488.91
2023-02-19T05:45:43.883Z,100488.69
2023-02-19T05:48:12.898Z,100490.61
2023-02-19T05:50:41.175Z,100493.13
2023-02-19T05:53:14.981Z,100508.07
2023-02-19T05:55:43.257Z,100512.75
2023-02-19T05:58:11.433Z,100510.12
2023-02-19T06:00:39.624Z,100519.79
2023-02-19T06:03:07.985Z,100518.69
2023-02-19T06:05:37.696Z,100528.04
2023-02-19T06:08:05.969Z,100527.54
2023-02-19T06:10:34.782Z,100533.15
2023-02-19T06:13:02.939Z,100542.75
2023-02-19T06:15:31.103Z,100541.20
2023-02-19T06:17:59.380Z,100537.08
2023-02-19T06:20:28.476Z,100531.14
2023-02-19T06:22:56.748Z,100524.27
2023-02-19T06:25:25.237Z,100515.37
2023-02-19T06:27:53.425Z,100508.61
2023-02-19T06:30:21.629Z,100514.59
2023-02-19T06:32:52.723Z,100515.70
2023-02-19T06:35:21.002Z,100514.46
2023-02-19T06:37:49.999Z,100521.13
2023-02-19T06:40:18.276Z,100518.69
2023-02-19T06:42:46.855Z,100516.48
2023-02-19T06:45:17.997Z,100513.71
2023-02-19T06:47:46.478Z,100503.10
2023-02-19T06:50:14.657Z,100493.12
2023-02-19T06:52:42.927Z,100486.45
2023-02-19T06:55:11.516Z,100477.25
2023-02-19T06:57:39.686Z,100472.46
2023-02-19T07:00:08.837Z,100464.51
2023-02-19T07:02:37.053Z,100458.77
2023-02-19T07:05:06.057Z,100456.41
2023-02-19T07:07:34.462Z,100460.20
2023-02-19T07:10:02.802Z,100468.82
2023-02-19T07:12:30.909Z,100465.13
2023-02-19T07:14:59.042Z,100459.52
2023-02-19T07:17:27.215Z,100465.51
2023-02-19T07:19:55.493Z,100465.48
2023-02-19T07:22:23.620Z,100460.16
2023-02-19T07:24:51.839Z,100463.80
2023-02-19T07:27:20.434Z,100461.89
2023-02-19T07:29:48.703Z,100459.10
2023-02-19T07:32:16.864Z,100462.59
2023-02-19T07:34:44.941Z,100466.84
2023-02-19T07:37:13.119Z,100470.05
2023-02-19T07:39:41.399Z,100482.73
2023-02-19T07:42:09.554Z,100479.52
2023-02-19T07:44:39.315Z,100479.27
2023-02-19T07:47:07.711Z,100476.21
2023-02-19T07:49:36.023Z,100468.66
2023-02-19T07:52:04.233Z,100487.28
2023-02-19T07:54:32.498Z,100487.36
2023-02-19T07:57:00.605Z,100487.58
2023-02-19T07:59:28.710Z,100482.80
2023-02-19T08:02:15.466Z,100474.09
2023-02-19T08:04:43.592Z,100469.78
2023-02-19T08:07:11.786Z,100481.55
2023-02-19T08:09:40.061Z,100483.79
2023-02-19T08:12:31.606Z,100485.02
2023-02-19T08:14:59.753Z,100483.50
2023-02-19T08:17:30.527Z,100478.52
2023-02-19T08:19:58.820Z,100476.07
2023-02-19T08:22:26.940Z,100468.06
2023-02-19T08:24:55.043Z,100457.27
2023-02-19T08:27:23.184Z,100457.07
2023-02-19T08:29:51.774Z,100451.30
2023-02-19T08:32:20.191Z,100445.64
2023-02-19T08:34:48.273Z,100451.13
2023-02-19T08:37:17.419Z,100449.29
2023-02-19T08:39:45.531Z,100456.37
2023-02-19T08:42:13.735Z,100463.53
2023-02-19T08:44:41.814Z,100473.42
2023-02-19T08:47:09.933Z,100476.27
2023-02-19T08:49:39.916Z,100480.74
2023-02-19T08:52:08.229Z,100478.54
2023-02-19T08:54:37.314Z,100468.12
2023-02-19T08:57:05.635Z,100465.67
2023-02-19T08:59:34.247Z,100470.79
2023-02-19T09:02:02.422Z,100469.66
2023-02-19T09:04:30.643Z,100461.98
2023-02-19T09:06:59.234Z,100449.40
2023-02-19T09:09:27.420Z,100437.25
2023-02-19T09:11:55.498Z,100432.62
2023-02-19T09:14:23.645Z,100429.40
2023-02-19T09:16:51.825Z,100431.33
2023-02-19T09:19:19.860Z,100419.84
2023-02-19T09:21:48.342Z,100402.80
2023-02-19T09:24:16.685Z,100397.02
2023-02-19T09:26:44.953Z,100392.45
2023-02-19T09:29:13.336Z,100395.21
2023-02-19T09:31:41.829Z,100398.46
2023-02-19T09:34:11.921Z,100394.93
2023-02-19T09:36:40.664Z,100392.14
2023-02-19T09:39:10.651Z,100389.95
2023-02-19T09:41:46.664Z,100390.64
2023-02-19T09:44:36.692Z,100383.24
2023-02-19T09:47:13.473Z,100385.55
2023-02-19T09:49:50.152Z,100402.52
2023-02-19T09:52:45.379Z,100411.35
2023-02-19T09:55:17.273Z,100417.90
2023-02-19T09:57:47.326Z,100423.39
2023-02-19T10:00:27.859Z,100419.60
2023-02-19T10:03:36.155Z,100415.10
2023-02-19T10:06:20.551Z,100415.91
2023-02-19T10:08:51.505Z,100421.95
2023-02-19T10:11:20.504Z,100418.01
2023-02-19T10:14:01.944Z,100416.42
2023-02-19T10:16:31.324Z,100414.92
2023-02-19T10:18:59.449Z,100407.98
2023-02-19T10:21:28.776Z,100404.16
2023-02-19T10:24:01.828Z,100402.92
2023-02-19T10:26:35.294Z,100393.05
2023-02-19T10:29:05.209Z,100386.73
2023-02-19T10:31:33.718Z,100377.77
2023-02-19T10:34:02.536Z,100378.70
2023-02-19T10:36:42.662Z,100378.35
2023-02-19T10:39:42.827Z,100371.28
2023-02-19T10:42:22.495Z,100354.91
2023-02-19T10:44:58.704Z,100346.55
2023-02-19T10:47:29.362Z,100346.63
2023-02-19T10:50:03.400Z,100343.98
2023-02-19T10:52:36.353Z,100342.19
2023-02-19T10:55:28.441Z,100342.65
2023-02-19T10:57:57.959Z,100345.16
2023-02-19T11:00:30.538Z,100337.20
2023-02-19T11:03:24.004Z,100330.89
2023-02-19T11:06:00.133Z,100319.65
2023-02-19T11:08:29.395Z,100312.70
2023-02-19T11:10:57.534Z,100310.05
2023-02-19T11:13:38.209Z,100305.77
2023-02-19T11:16:06.565Z,100304.79
2023-02-19T11:18:36.457Z,100307.32
2023-02-19T11:21:07.453Z,100298.20
2023-02-19T11:23:38.679Z,100291.14
2023-02-19T11:26:19.332Z,100292.44
2023-02-19T11:28:59.918Z,100294.59
2023-02-19T11:31:32.189Z,100291.60
2023-02-19T11:34:30.001Z,100293.95
2023-02-19T11:37:10.355Z,100287.63
2023-02-19T11:39:41.162Z,100283.58
2023-02-19T11:42:14.902Z,100283.25
2023-02-19T11:45:07.436Z,100279.34
2023-02-19T11:48:22.296Z,100278.48
2023-02-19T11:51:06.037Z,100273.77
2023-02-19T11:53:37.584Z,100270.10
2023-02-19T11:56:33.827Z,100273.88
2023-02-19T11:59:17.773Z,100270.29
2023-02-19T12:01:51.607Z,100272.77
2023-02-19T12:04:51.222Z,100271.86
2023-02-19T12:07:46.767Z,100270.52
2023-02-19T12:10:15.326Z,100266.04
2023-02-19T12:12:55.544Z,100258.22
2023-02-19T12:15:59.388Z,100252.63
2023-02-19T12:18:42.786Z,100244.52
2023-02-19T12:21:35.807Z,100237.80
2023-02-19T12:24:16.059Z,100236.50
2023-02-19T12:27:05.858Z,100234.91
2023-02-19T12:29:49.020Z,100239.52
2023-02-19T12:32:35.769Z,100234.04
2023-02-19T12:35:24.666Z,100231.76
2023-02-19T12:38:22.910Z,100231.11
2023-02-19T12:41:14.846Z,100221.53
2023-02-19T12:43:59.200Z,100213.27
2023-02-19T12:46:38.574Z,100207.67
2023-02-19T12:49:25.520Z,100205.83
2023-02-19T12:52:24.943Z,100207.63
2023-02-19T12:54:57.615Z,100199.79
2023-02-19T12:57:30.286Z,100193.52
2023-02-19T13:00:26.943Z,100195.47
2023-02-19T13:03:10.677Z,100197.98
2023-02-19T13:05:50.021Z,100196.13
2023-02-19T13:08:34.133Z,100191.04
2023-02-19T13:11:27.825Z,100187.61
2023-02-19T13:14:00.420Z,100194.41
2023-02-19T13:16:35.029Z,100190.86
2023-02-19T13:19:04.857Z,100195.65
2023-02-19T13:21:55.831Z,100190.84
2023-02-19T13:24:28.188Z,100190.10
2023-02-19T13:27:05.525Z,100189.73
2023-02-19T13:29:53.938Z,100187.04
2023-02-19T13:32:56.377Z,100191.32
2023-02-19T13:35:27.393Z,100193.86
2023-02-19T13:38:00.361Z,100188.70
2023-02-19T13:40:33.462Z,100188.89
2023-02-19T13:43:06.347Z,100192.24
2023-02-19T13:45:40.252Z,100188.27
2023-02-19T13:48:23.694Z,100180.44
2023-02-19T13:51:21.755Z,100172.98
2023-02-19T13:53:56.038Z,100166.98
2023-02-19T13:56:30.320Z,100161.69
2023-02-19T13:59:23.144Z,100162.91
2023-02-19T14:01:54.181Z,100158.84
2023-02-19T14:04:25.241Z,100154.98
2023-02-19T14:07:06.201Z,100162.67
2023-02-19T14:09:37.858Z,100156.83
2023-02-19T14:12:06.330Z,100149.45
2023-02-19T14:14:36.060Z,100147.55
2023-02-19T14:17:23.891Z,100143.87
2023-02-19T14:19:59.416Z,100133.70
2023-02-19T14:22:46.256Z,100137.40
2023-02-19T14:25:33.197Z,100129.54
2023-02-19T14:28:27.211Z,100129.52
2023-02-19T14:31:18.311Z,100123.45
2023-02-19T14:33:59.946Z,100110.98
2023-02-19T14:36:53.176Z,100109.84
2023-02-19T14:39:26.475Z,100117.39
2023-02-19T14:41:59.321Z,100116.35
2023-02-19T14:44:32.169Z,100112.85
2023-02-19T14:47:07.298Z,100107.59
2023-02-19T14:49:51.683Z,100109.52
2023-02-19T14:52:41.131Z,100114.20
2023-02-19T14:55:13.375Z,100110.38
2023-02-19T14:57:46.127Z,100107.10
2023-02-19T15:00:23.760Z,100104.79
2023-02-19T15:02:55.895Z,100103.60
2023-02-19T15:05:39.397Z,100104.83
2023-02-19T15:08:18.786Z,100101.34
2023-02-19T15:10:48.553Z,100095.10
2023-02-19T15:13:25.169Z,100088.61
2023-02-19T15:15:55.403Z,100086.63
2023-02-19T15:18:26.117Z,100086.14
2023-02-19T15:21:03.812Z,100077.83
2023-02-19T15:23:35.973Z,100080.11
2023-02-19T15:26:04.371Z,100081.24
2023-02-19T15:28:34.501Z,100084.79
2023-02-19T15:31:03.508Z,100081.51
2023-02-19T15:33:32.217Z,100082.34
2023-02-19T15:36:04.659Z,100082.05
2023-02-19T15:38:36.011Z,100075.02
2023-02-19T15:41:05.305Z,100076.00
2023-02-19T15:43:45.544Z,100073.73
2023-02-19T15:46:32.122Z,100073.61
2023-02-19T15:49:03.225Z,100074.02
2023-02-19T15:51:38.256Z,100072.04
2023-02-19T15:54:22.279Z,100075.56
2023-02-19T15:56:59.562Z,100073.70
2023-02-19T15:59:40.652Z,100070.36
2023-02-19T16:02:13.737Z,100066.80
2023-02-19T16:04:45.727Z,100068.45
2023-02-19T16:07:28.093Z,100067.04
2023-02-19T16:10:21.221Z,100064.29
2023-02-19T16:12:57.373Z,100061.01
2023-02-19T16:15:27.736Z,100059.71
2023-02-19T16:17:57.374Z,100057.90
2023-02-19T16:20:30.278Z,100061.03
2023-02-19T16:23:12.024Z,100060.05
2023-02-19T16:25:44.921Z,100054.39
2023-02-19T16:28:21.180Z,100052.95
2023-02-19T16:30:59.890Z,100057.92
2023-02-19T16:33:36.893Z,100060.69
2023-02-19T16:36:41.494Z,100063.70
2023-02-19T16:39:09.683Z,100065.78
2023-02-19T16:41:40.930Z,100063.54
2023-02-19T16:44:21.489Z,100066.21
2023-02-19T16:46:54.474Z,100068.91
2023-02-19T16:49:23.987Z,100076.07
2023-02-19T16:51:52.469Z,100071.45
2023-02-19T16:54:20.626Z,100071.77
2023-02-19T16:56:49.005Z,100068.36
2023-02-19T16:59:17.176Z,100068.98
2023-02-19T17:01:45.433Z,100066.70
2023-02-19T17:04:16.085Z,100065.73
2023-02-19T17:06:45.801Z,100064.17
2023-02-19T17:09:13.969Z,100057.80
2023-02-19T17:11:42.142Z,100071.78
2023-02-19T17:14:10.413Z,100073.64
2023-02-19T17:16:41.408Z,100074.89
2023-02-19T17:19:13.270Z,100069.68
2023-02-19T17:21:41.883Z,100067.73
2023-02-19T17:24:10.076Z,100071.30
2023-02-19T17:26:38.350Z,100072.18
2023-02-19T17:29:14.149Z,100075.90
2023-02-19T17:31:42.403Z,100081.67
2023-02-19T17:34:11.538Z,100079.02
2023-02-19T17:36:41.184Z,100084.11
2023-02-19T17:39:15.982Z,100080.01
2023-02-19T17:41:44.227Z,100075.06
2023-02-19T17:44:12.358Z,100074.30
2023-02-19T17:46:41.259Z,100070.25
2023-02-19T17:49:12.769Z,100073.09
2023-02-19T17:51:40.975Z,100079.45
2023-02-19T17:54:09.646Z,100080.52
2023-02-19T17:56:40.119Z,100078.60
2023-02-19T17:59:08.235Z,100083.92
2023-02-19T18:01:36.531Z,100088.59
2023-02-19T18:04:05.560Z,100090.00
2023-02-19T18:06:34.725Z,100091.14
2023-02-19T18:09:03.403Z,100092.10
2023-02-19T18:11:31.635Z,100100.48
2023-02-19T18:13:59.859Z,100105.69
2023-02-19T18:16:28.284Z,100113.75
2023-02-19T18:18:58.662Z,100145.13
2023-02-19T18:21:27.053Z,100173.14
2023-02-19T18:23:55.240Z,100186.27
2023-02-19T18:26:23.621Z,100192.95
2023-02-19T18:28:51.883Z,100189.31
2023-02-19T18:31:20.243Z,100199.95
2023-02-19T18:33:48.632Z,100208.70
2023-02-19T18:36:17.570Z,100217.77
2023-02-19T18:38:46.357Z,100223.73
2023-02-19T18:41:19.569Z,100229.39
2023-02-19T18:43:48.949Z,100239.73
2023-02-19T18:46:21.519Z,100239.73
2023-02-19T18:48:49.649Z,100246.55
2023-02-19T18:51:17.809Z,100243.55
2023-02-19T18:53:46.312Z,100247.61
2023-02-19T18:56:14.575Z,100243.70
2023-02-19T18:58:45.638Z,100254.14
2023-02-19T19:01:14.215Z,100263.96
2023-02-19T19:03:42.587Z,100274.00
2023-02-19T19:06:10.753Z,100278.66
2023-02-19T19:08:39.132Z,100289.13
2023-02-19T19:11:09.797Z,100293.19
2023-02-19T19:13:38.449Z,100301.67
2023-02-19T19:16:11.748Z,100309.56
2023-02-19T19:18:40.432Z,100326.57
2023-02-19T19:21:09.918Z,100338.01
2023-02-19T19:23:38.214Z,100346.11
2023-02-19T19:26:07.043Z,100357.89
2023-02-19T19:28:35.230Z,100381.52
2023-02-19T19:31:03.557Z,100389.22
2023-02-19T19:33:31.725Z,100392.53
2023-02-19T19:35:59.895Z,100396.66
2023-02-19T19:38:28.171Z,100404.96
2023-02-19T19:40:56.417Z,100415.25
2023-02-19T19:43:29.954Z,100418.68
2023-02-19T19:45:59.009Z,100431.02
2023-02-19T19:48:29.734Z,100433.23
2023-02-19T19:50:58.049Z,100438.55
2023-02-19T19:53:26.531Z,100443.66
2023-02-19T19:55:54.807Z,100458.48
2023-02-19T19:58:24.935Z,100470.16
2023-02-19T20:00:53.565Z,100479.69
2023-02-19T20:03:22.504Z,100488.01
2023-02-19T20:05:51.378Z,100496.36
2023-02-19T20:08:19.858Z,100517.31
2023-02-19T20:10:48.249Z,100525.27
2023-02-19T20:13:24.517Z,100533.09
2023-02-19T20:15:52.830Z,100537.88
2023-02-19T20:18:21.790Z,100545.99
2023-02-19T20:20:49.954Z,100555.38
2023-02-19T20:23:18.231Z,100562.70
2023-02-19T20:25:46.401Z,100569.90
2023-02-19T20:28:14.573Z,100579.30
2023-02-19T20:30:43.927Z,100587.83
2023-02-19T20:33:12.251Z,100589.32
2023-02-19T20:35:41.045Z,100598.23
2023-02-19T20:38:09.174Z,100596.46
2023-02-19T20:40:37.416Z,100604.42
2023-02-19T20:43:05.503Z,100616.07
2023-02-19T20:45:33.921Z,100621.29
2023-02-19T20:48:02.127Z,100633.98
2023-02-19T20:50:30.503Z,100640.33
2023-02-19T20:52:58.673Z,100650.99
2023-02-19T20:55:26.842Z,100659.65
2023-02-19T20:57:55.114Z,100667.05
2023-02-19T21:00:23.908Z,100671.58
2023-02-19T21:02:52.311Z,100674.80
2023-02-19T21:05:20.865Z,100683.56
2023-02-19T21:07:49.552Z,100688.09
2023-02-19T21:10:18.338Z,100695.71
2023-02-19T21:12:46.823Z,100697.48
2023-02-19T21:15:15.510Z,100708.20
2023-02-19T21:17:47.348Z,100712.09
2023-02-19T21:20:19.810Z,100711.61
2023-02-19T21:22:48.117Z,100701.39
2023-02-19T21:25:16.290Z,100702.27
2023-02-19T21:27:44.562Z,100705.95
2023-02-19T21:30:13.506Z,100710.63
2023-02-19T21:32:41.934Z,100718.45
2023-02-19T21:35:10.418Z,100729.20
2023-02-19T21:37:42.539Z,100723.05
2023-02-19T21:40:12.325Z,100717.58
2023-02-19T21:42:40.569Z,100716.69
2023-02-19T21:45:09.058Z,100720.20
2023-02-19T21:47:37.224Z,100734.27
2023-02-19T21:50:06.448Z,100742.23
2023-02-19T21:52:34.809Z,100740.09
2023-02-19T21:55:03.117Z,100750.19
2023-02-19T21:57:32.597Z,100760.02
2023-02-19T22:00:00.846Z,100768.10
2023-02-19T22:02:29.036Z,100768.30
2023-02-19T22:04:57.917Z,100769.67
2023-02-19T22:07:26.190Z,100775.19
2023-02-19T22:09:54.465Z,100778.44
2023-02-19T22:12:22.843Z,100780.17
2023-02-19T22:14:51.841Z,100774.81
2023-02-19T22:17:20.833Z,100775.13
2023-02-19T22:19:48.983Z,100772.93
2023-02-19T22:22:17.178Z,100774.45
2023-02-19T22:24:45.454Z,100783.56
2023-02-19T22:27:13.727Z,100782.94
2023-02-19T22:29:41.927Z,100790.06
2023-02-19T22:32:10.721Z,100796.92
2023-02-19T22:34:40.914Z,100802.71
2023-02-19T22:37:10.448Z,100809.21
2023-02-19T22:39:40.369Z,100813.61
2023-02-19T22:42:08.606Z,100807.58
2023-02-19T22:44:36.996Z,100805.92
2023-02-19T22:47:05.363Z,100807.90
2023-02-19T22:49:33.638Z,100803.41
2023-02-19T22:52:05.901Z,100798.07
2023-02-19T22:54:37.262Z,100798.30
2023-02-19T22:57:06.187Z,100797.77
2023-02-19T22:59:34.527Z,100796.16
2023-02-19T23:02:02.802Z,100797.70
2023-02-19T23:04:31.423Z,100795.19
2023-02-19T23:06:59.663Z,100794.81
2023-02-19T23:09:29.484Z,100793.65
2023-02-19T23:12:23.861Z,100796.82
2023-02-19T23:14:52.240Z,100791.51
2023-02-19T23:17:20.528Z,100791.04
2023-02-19T23:19:48.693Z,100796.31
2023-02-19T23:22:16.967Z,100799.80
2023-02-19T23:24:45.138Z,100795.92
2023-02-19T23:27:13.418Z,100804.87
2023-02-19T23:29:41.594Z,100802.80
2023-02-19T23:32:10.918Z,100798.91
2023-02-19T23:34:39.053Z,100795.43
2023-02-19T23:37:07.234Z,100796.94
2023-02-19T23:39:35.519Z,100805.83
2023-02-19T23:42:03.889Z,100809.02
2023-02-19T23:44:32.266Z,100806.05
2023-02-19T23:47:00.542Z,100804.60
2023-02-19T23:49:28.713Z,100799.13
2023-02-19T23:51:56.892Z,100804.45
2023-02-19T23:54:25.058Z,100804.92
2023-02-19T23:56:53.337Z,100808.73
2023-02-19T23:59:21.610Z,100805.68
